Time;durP1;ratioP1;P1;durP2;ratioP2;P2;SDS_P1;SDS_P2;PMS_P1;PMS_P2;Temp;Humidity;BMP_temperature;BMP_pressure;BME280_temperature;BME280_humidity;BME280_pressure;Samples;Min_cycle;Max_cycle;Signal;HPM_P1;HPM_P2
2022/02/22 00:00:03;;;;;;;10.00;1.70;;;;;;;-145.69;100.00;72610.44;5086010;28;20199;-76
2022/02/22 00:02:30;;;;;;;12.80;1.90;;;;;;;-145.69;100.00;72608.44;5075534;28;20199;-76
2022/02/22 00:04:57;;;;;;;6.17;1.57;;;;;;;-145.69;100.00;72604.44;5075206;28;20206;-76
2022/02/22 00:07:24;;;;;;;12.63;2.30;;;;;;;-145.69;100.00;72608.44;5092444;28;20233;-76
2022/02/22 00:09:50;;;;;;;4.90;1.37;;;;;;;-145.69;100.00;72616.41;5085923;28;20195;-76
2022/02/22 00:12:17;;;;;;;5.97;1.60;;;;;;;-145.69;100.00;72616.41;5075058;28;20207;-76
2022/02/22 00:14:44;;;;;;;11.43;1.60;;;;;;;-145.69;100.00;72612.41;5093487;28;20665;-76
2022/02/22 00:17:10;;;;;;;7.10;1.60;;;;;;;-145.69;100.00;72620.38;5095372;28;20297;-77
2022/02/22 00:19:37;;;;;;;9.57;1.60;;;;;;;-145.69;100.00;72626.34;5095373;28;20471;-77
2022/02/22 00:22:05;;;;;;;8.03;1.70;;;;;;;-145.69;100.00;72628.34;5083917;28;20226;-76
2022/02/22 00:24:32;;;;;;;9.77;1.53;;;;;;;-145.69;100.00;72622.38;5074902;28;20202;-76
2022/02/22 00:26:58;;;;;;;8.83;1.80;;;;;;;-145.69;100.00;72622.38;5074360;28;20231;-77
2022/02/22 00:29:25;;;;;;;6.87;1.70;;;;;;;-145.69;100.00;72624.34;5073896;28;20668;-76
2022/02/22 00:31:51;;;;;;;11.27;1.40;;;;;;;-145.69;100.00;72636.31;5074896;28;20206;-76
2022/02/22 00:34:18;;;;;;;11.17;1.80;;;;;;;-145.69;100.00;72628.34;5090242;28;20198;-76
2022/02/22 00:36:45;;;;;;;14.80;2.20;;;;;;;-145.69;100.00;72624.34;5094700;28;20207;-76
2022/02/22 00:39:13;;;;;;;7.13;1.33;;;;;;;-145.69;100.00;72628.34;5094835;28;20226;-77
2022/02/22 00:41:40;;;;;;;11.50;1.47;;;;;;;-145.69;100.00;72632.31;5094809;28;20226;-76
2022/02/22 00:44:07;;;;;;;7.80;1.57;;;;;;;-145.69;100.00;72634.31;5095034;28;20546;-77
2022/02/22 00:46:34;;;;;;;9.97;1.50;;;;;;;-145.69;100.00;72628.34;5094663;28;20367;-76
2022/02/22 00:49:00;;;;;;;9.23;1.30;;;;;;;-145.69;100.00;72636.31;5094674;28;20236;-76
2022/02/22 00:51:27;;;;;;;9.20;1.50;;;;;;;-145.69;100.00;72634.31;5094558;28;20202;-76
2022/02/22 00:53:53;;;;;;;8.43;1.70;;;;;;;-145.69;100.00;72628.34;5095043;28;20209;-76
2022/02/22 00:56:21;;;;;;;8.77;1.90;;;;;;;-145.69;100.00;72628.34;5078000;28;20195;-76
2022/02/22 00:58:47;;;;;;;9.93;1.70;;;;;;;-145.69;100.00;72636.31;5074218;28;20616;-77
2022/02/22 01:01:16;;;;;;;5.93;2.00;;;;;;;-145.69;100.00;72630.31;5074393;28;20210;-76
2022/02/22 01:03:43;;;;;;;9.63;1.80;;;;;;;-145.69;100.00;72636.31;5074048;28;20286;-76
2022/02/22 01:06:09;;;;;;;14.07;1.93;;;;;;;-145.69;100.00;72634.31;5074104;28;20223;-76
2022/02/22 01:08:36;;;;;;;11.23;1.63;;;;;;;-145.69;100.00;72634.31;5073870;28;20242;-76
2022/02/22 01:11:02;;;;;;;14.50;2.00;;;;;;;-145.69;100.00;72638.28;5074248;28;20210;-76
2022/02/22 01:13:30;;;;;;;9.07;1.80;;;;;;;-145.69;100.00;72636.31;5074068;28;20218;-76
2022/02/22 01:15:57;;;;;;;7.67;1.70;;;;;;;-145.69;100.00;72636.31;5073707;28;20202;-76
2022/02/22 01:18:23;;;;;;;14.67;2.13;;;;;;;-145.69;100.00;72644.25;5093344;28;20202;-76
2022/02/22 01:20:50;;;;;;;9.40;1.83;;;;;;;-145.69;100.00;72646.25;5093914;28;20194;-76
2022/02/22 01:23:17;;;;;;;8.27;1.33;;;;;;;-145.69;100.00;72652.22;5093926;28;20201;-76
2022/02/22 01:25:44;;;;;;;6.03;1.83;;;;;;;-145.69;100.00;72660.19;5094235;28;20202;-76
2022/02/22 01:28:10;;;;;;;16.47;1.80;;;;;;;-145.69;100.00;72668.16;5094236;28;20198;-77
2022/02/22 01:30:38;;;;;;;2.77;1.67;;;;;;;-145.69;100.00;72672.13;5094296;28;20205;-76
2022/02/22 01:33:05;;;;;;;14.73;1.80;;;;;;;-145.69;100.00;72672.13;5093907;28;20205;-77
2022/02/22 01:35:31;;;;;;;8.37;1.70;;;;;;;-145.69;100.00;72680.09;5093752;28;20203;-76
2022/02/22 01:37:57;;;;;;;15.73;1.77;;;;;;;-145.69;100.00;72676.09;5090478;28;20549;-76
2022/02/22 01:40:26;;;;;;;5.17;1.70;;;;;;;-145.69;100.00;72682.09;5073340;28;20191;-76
2022/02/22 01:42:54;;;;;;;10.77;2.07;;;;;;;-145.69;100.00;72692.03;5073279;28;20223;-76
2022/02/22 01:45:22;;;;;;;14.10;2.00;;;;;;;-145.69;100.00;72692.03;5073440;28;20202;-76
2022/02/22 01:47:50;;;;;;;10.77;1.93;;;;;;;-145.69;100.00;72692.03;5072177;28;20235;-76
2022/02/22 01:50:19;;;;;;;10.67;1.87;;;;;;;-145.69;100.00;72698.00;5073115;28;20565;-76
2022/02/22 01:52:47;;;;;;;6.03;1.77;;;;;;;-145.69;100.00;72700.00;5073427;28;20293;-76
2022/02/22 01:55:18;;;;;;;8.77;1.80;;;;;;;-145.69;100.00;72701.97;5073087;28;20211;-76
2022/02/22 01:57:46;;;;;;;17.50;2.13;;;;;;;-145.69;100.00;72707.97;5073026;28;20198;-76
2022/02/22 02:00:15;;;;;;;8.00;1.70;;;;;;;-145.69;100.00;72709.94;5077884;28;20190;-76
2022/02/22 02:02:44;;;;;;;11.23;1.70;;;;;;;-145.69;100.00;72703.97;5093804;28;20217;-76
2022/02/22 02:05:12;;;;;;;8.10;1.77;;;;;;;-145.69;100.00;72703.97;5093337;28;20255;-76
2022/02/22 02:07:39;;;;;;;10.57;1.90;;;;;;;-145.69;100.00;72711.94;5093041;28;20234;-76
2022/02/22 02:10:05;;;;;;;9.53;2.20;;;;;;;-145.69;100.00;72727.88;5093319;28;20202;-76
2022/02/22 02:12:36;;;;;;;12.93;3.00;;;;;;;-145.69;100.00;72723.88;5093298;28;20204;-76
2022/02/22 02:15:04;;;;;;;6.57;2.40;;;;;;;-145.69;100.00;72735.81;5092869;28;20251;-76
2022/02/22 02:17:32;;;;;;;8.73;1.93;;;;;;;-145.69;100.00;72743.78;5093773;28;20205;-76
2022/02/22 02:20:01;;;;;;;11.10;1.80;;;;;;;-145.69;100.00;72755.72;5093209;28;20565;-75
2022/02/22 02:22:29;;;;;;;11.50;2.00;;;;;;;-145.69;100.00;72761.69;5082810;28;20209;-77
2022/02/22 02:24:56;;;;;;;6.57;1.70;;;;;;;-145.69;100.00;72771.66;5073043;28;20578;-76
2022/02/22 02:27:22;;;;;;;10.07;1.73;;;;;;;-145.69;100.00;72791.56;5071903;28;20223;-76
2022/02/22 02:29:49;;;;;;;8.60;1.80;;;;;;;-145.69;100.00;72809.47;5072614;28;20202;-77
2022/02/22 02:32:15;;;;;;;12.07;2.03;;;;;;;-145.69;100.00;72799.53;5072747;28;20207;-76
2022/02/22 02:34:42;;;;;;;4.97;1.60;;;;;;;-145.69;100.00;72801.50;5072690;28;20199;-77
2022/02/22 02:37:08;;;;;;;6.93;1.83;;;;;;;-145.69;100.00;72811.47;5072834;28;20198;-77
2022/02/22 02:39:36;;;;;;;12.20;2.20;;;;;;;-145.69;100.00;72823.41;5072596;28;20206;-77
2022/02/22 02:42:03;;;;;;;10.00;1.80;;;;;;;-145.69;100.00;72843.31;5072652;28;20198;-76
2022/02/22 02:44:30;;;;;;;6.27;1.53;;;;;;;-145.69;100.00;72851.28;5082988;28;20194;-76
2022/02/22 02:46:56;;;;;;;8.83;1.80;;;;;;;-145.69;100.00;72841.31;5092612;28;20600;-76
2022/02/22 02:49:25;;;;;;;9.10;1.83;;;;;;;-145.69;100.00;72847.28;5092364;28;20700;-76
2022/02/22 02:51:52;;;;;;;8.23;1.83;;;;;;;-145.69;100.00;72835.34;5092275;28;20202;-76
2022/02/22 02:54:18;;;;;;;9.90;1.57;;;;;;;-145.69;100.00;72831.38;5091206;28;20194;-76
2022/02/22 02:56:46;;;;;;;9.90;1.80;;;;;;;-145.69;100.00;72823.41;5092681;28;20206;-77
2022/02/22 02:59:13;;;;;;;5.37;1.80;;;;;;;-145.69;100.00;72827.38;5095964;28;20205;-76
2022/02/22 03:01:42;;;;;;;17.67;2.90;;;;;;;-145.69;100.00;72819.44;5096645;28;20208;-76
2022/02/22 03:04:09;;;;;;;10.07;2.03;;;;;;;-145.69;100.00;72811.47;5096781;28;20194;-76
2022/02/22 03:06:37;;;;;;;11.63;2.10;;;;;;;-145.69;100.00;72807.47;5083294;28;20218;-76
2022/02/22 03:09:04;;;;;;;7.13;1.73;;;;;;;-145.69;100.00;72807.47;5076114;28;20234;-76
2022/02/22 03:11:31;;;;;;;11.47;1.77;;;;;;;-145.69;100.00;72801.50;5076206;28;20214;-76
2022/02/22 03:13:59;;;;;;;14.40;2.30;;;;;;;-145.69;100.00;72811.47;5076022;28;20205;-76
2022/02/22 03:16:26;;;;;;;13.47;1.57;;;;;;;-145.69;100.00;72805.50;5076311;28;20211;-76
2022/02/22 03:18:54;;;;;;;8.57;2.30;;;;;;;-145.69;100.00;72811.47;5076183;28;20324;-77
2022/02/22 03:21:21;;;;;;;10.07;1.83;;;;;;;-145.69;100.00;72807.47;5078633;28;20202;-77
2022/02/22 03:23:47;;;;;;;5.13;1.70;;;;;;;-145.69;100.00;72815.44;5095939;28;20194;-77
2022/02/22 03:26:14;;;;;;;10.83;2.13;;;;;;;-145.69;100.00;72815.44;5096801;28;20587;-77
2022/02/22 03:28:40;;;;;;;7.50;1.70;;;;;;;-145.69;100.00;72823.41;5096476;28;20198;-76
2022/02/22 03:31:11;;;;;;;6.13;1.83;;;;;;;-145.69;100.00;72831.38;5096388;28;20198;-76
2022/02/22 03:33:37;;;;;;;7.33;1.80;;;;;;;-145.69;100.00;72823.41;5096331;28;20564;-76
2022/02/22 03:36:05;;;;;;;6.73;1.80;;;;;;;-145.69;100.00;72829.38;5096036;28;20202;-76
2022/02/22 03:38:32;;;;;;;5.70;1.70;;;;;;;-145.69;100.00;72827.38;5095893;28;20229;-76
2022/02/22 03:41:00;;;;;;;8.83;1.70;;;;;;;-145.69;100.00;72831.38;5094790;28;20198;-76
2022/02/22 03:43:26;;;;;;;5.77;1.40;;;;;;;-145.69;100.00;72835.34;5075796;28;20263;-76
2022/02/22 03:45:53;;;;;;;4.83;1.70;;;;;;;-145.69;100.00;72827.38;5075464;28;20203;-76
2022/02/22 03:48:22;;;;;;;6.90;1.53;;;;;;;-145.69;100.00;72837.34;5075555;28;20704;-76
2022/02/22 03:50:49;;;;;;;7.17;2.30;;;;;;;-145.69;100.00;72847.28;5075475;28;20232;-76
2022/02/22 03:53:16;;;;;;;7.23;1.80;;;;;;;-145.69;100.00;72841.31;5075485;28;20207;-76
2022/02/22 03:55:46;;;;;;;5.87;2.23;;;;;;;-145.69;100.00;72847.28;5075600;28;20226;-76
2022/02/22 03:58:13;;;;;;;3.37;1.63;;;;;;;-145.69;100.00;72847.28;5075545;28;20209;-77
2022/02/22 04:00:40;;;;;;;5.23;1.73;;;;;;;-145.69;100.00;72859.25;5075498;28;20206;-76
2022/02/22 04:03:08;;;;;;;8.43;1.90;;;;;;;-145.69;100.00;72851.28;5077479;28;20202;-77
2022/02/22 04:05:37;;;;;;;7.90;2.00;;;;;;;-145.69;100.00;72867.19;5093601;28;20716;-76
2022/02/22 04:08:05;;;;;;;8.27;2.43;;;;;;;-145.69;100.00;72879.16;5095363;28;20234;-76
2022/02/22 04:10:32;;;;;;;9.68;2.40;;;;;;;-145.69;100.00;72883.13;5094170;28;20440;-77
2022/02/22 04:12:58;;;;;;;3.60;2.00;;;;;;;-145.69;100.00;72885.13;5095253;28;20553;-77
2022/02/22 04:15:24;;;;;;;8.50;2.37;;;;;;;-145.69;100.00;72893.09;5095462;28;20202;-76
2022/02/22 04:17:51;;;;;;;6.83;2.10;;;;;;;-145.69;100.00;72903.03;5095418;28;20198;-76
2022/02/22 04:20:18;;;;;;;8.17;2.20;;;;;;;-145.69;100.00;72916.97;5095222;28;20213;-76
2022/02/22 04:22:46;;;;;;;6.97;2.40;;;;;;;-145.69;100.00;72924.94;5095302;28;20195;-77
2022/02/22 04:25:13;;;;;;;10.60;2.40;;;;;;;-145.69;100.00;72920.94;5091593;28;20550;-76
2022/02/22 04:27:40;;;;;;;6.67;2.20;;;;;;;-145.69;100.00;72936.88;5074779;28;20223;-77
2022/02/22 04:30:10;;;;;;;12.70;2.30;;;;;;;-145.69;100.00;72952.78;5074838;28;20199;-76
2022/02/22 04:32:40;;;;;;;12.57;2.70;;;;;;;-145.69;100.00;72966.72;5074833;28;20210;-76
2022/02/22 04:35:09;;;;;;;6.43;2.30;;;;;;;-145.69;100.00;72976.69;5075041;28;20199;-76
2022/02/22 04:37:36;;;;;;;11.97;2.67;;;;;;;-145.69;100.00;72982.66;5074070;28;20198;-77
2022/02/22 04:40:07;;;;;;;11.13;2.90;;;;;;;-145.69;100.00;72968.72;5074721;28;20657;-76
2022/02/22 04:42:34;;;;;;;8.53;2.40;;;;;;;-145.69;100.00;72970.72;5074429;28;20204;-77
2022/02/22 04:45:00;;;;;;;8.33;2.80;;;;;;;-145.69;100.00;72972.72;5074609;28;20207;-76
2022/02/22 04:47:27;;;;;;;10.27;2.43;;;;;;;-145.69;100.00;72980.66;5080721;28;20584;-76
2022/02/22 04:49:56;;;;;;;12.67;2.67;;;;;;;-145.69;100.00;72978.69;5094829;28;20206;-76
2022/02/22 04:52:23;;;;;;;17.13;2.70;;;;;;;-145.69;100.00;72964.75;5094558;28;20205;-76
2022/02/22 04:54:49;;;;;;;8.63;2.47;;;;;;;-145.69;100.00;72980.66;5094650;28;20199;-76
2022/02/22 04:57:20;;;;;;;10.93;3.00;;;;;;;-145.69;100.00;72994.59;5094375;28;20221;-76
2022/02/22 04:59:46;;;;;;;7.63;3.20;;;;;;;-145.69;100.00;72994.59;5094560;28;20204;-76
2022/02/22 05:02:15;;;;;;;9.50;2.60;;;;;;;-145.69;100.00;72990.63;5094301;28;20213;-76
2022/02/22 05:04:41;;;;;;;8.97;2.80;;;;;;;-145.69;100.00;72972.72;5094657;28;20300;-77
2022/02/22 05:07:08;;;;;;;9.07;3.30;;;;;;;-145.69;100.00;72972.72;5075497;28;20222;-76
2022/02/22 05:09:34;;;;;;;11.20;3.53;;;;;;;-145.69;100.00;72978.69;5073873;28;20203;-77
2022/02/22 05:12:04;;;;;;;17.83;3.57;;;;;;;-145.69;100.00;72960.75;5073916;28;20206;-76
2022/02/22 05:14:32;;;;;;;11.60;3.23;;;;;;;-145.69;100.00;72966.72;5073707;28;20206;-77
2022/02/22 05:16:59;;;;;;;9.37;2.67;;;;;;;-145.69;100.00;72968.72;5074213;28;20202;-76
2022/02/22 05:19:25;;;;;;;11.23;2.63;;;;;;;-145.69;100.00;72978.69;5073808;28;20657;-76
2022/02/22 05:21:52;;;;;;;9.57;2.77;;;;;;;-145.69;100.00;72978.69;5073710;28;20601;-76
2022/02/22 05:24:18;;;;;;;9.03;2.40;;;;;;;-145.69;100.00;73002.56;5073297;28;20206;-77
2022/02/22 05:26:45;;;;;;;10.77;2.80;;;;;;;-145.69;100.00;72986.63;5090199;28;20203;-77
2022/02/22 05:29:11;;;;;;;11.33;2.83;;;;;;;-145.69;100.00;72974.69;5093888;28;20282;-76
2022/02/22 05:31:42;;;;;;;8.23;2.67;;;;;;;-145.69;100.00;72974.69;5093883;28;20202;-76
2022/02/22 05:34:08;;;;;;;5.87;2.40;;;;;;;-145.69;100.00;72970.72;5093991;28;20205;-76
2022/02/22 05:36:34;;;;;;;9.13;2.37;;;;;;;-145.69;100.00;72978.69;5093823;28;20201;-76
2022/02/22 05:39:01;;;;;;;9.93;2.83;;;;;;;-145.69;100.00;72996.59;5093496;28;20202;-76
2022/02/22 05:41:28;;;;;;;12.73;3.10;;;;;;;-145.69;100.00;72994.59;5093569;28;20482;-76
2022/02/22 05:43:54;;;;;;;18.17;2.87;;;;;;;-145.69;100.00;72984.66;5093569;28;20202;-76
2022/02/22 05:46:21;;;;;;;7.83;3.00;;;;;;;-145.69;100.00;72984.66;5093715;28;20202;-76
2022/02/22 05:48:49;;;;;;;12.20;2.90;;;;;;;-145.69;100.00;72982.66;5076604;28;20226;-76
2022/02/22 05:51:18;;;;;;;18.57;2.80;;;;;;;-145.69;100.00;72976.69;5073090;28;20205;-76
2022/02/22 05:53:44;;;;;;;11.67;3.00;;;;;;;-145.69;100.00;72980.66;5073066;28;20199;-77
2022/02/22 05:56:11;;;;;;;8.13;2.70;;;;;;;-145.69;100.00;72982.66;5072935;28;20787;-76
2022/02/22 05:58:38;;;;;;;11.70;3.23;;;;;;;-145.69;100.00;72982.66;5073334;28;20236;-77
2022/02/22 06:01:04;;;;;;;15.10;2.73;;;;;;;-145.69;100.00;72978.69;5072708;28;20234;-76
2022/02/22 06:03:31;;;;;;;11.63;3.80;;;;;;;-145.69;100.00;72982.66;5072899;28;20199;-76
2022/02/22 06:05:59;;;;;;;6.90;2.67;;;;;;;-145.69;100.00;72986.63;5083503;28;20691;-77
2022/02/22 06:08:26;;;;;;;8.83;3.13;;;;;;;-145.69;100.00;72994.59;5092733;28;20237;-76
2022/02/22 06:10:55;;;;;;;15.83;3.90;;;;;;;-145.69;100.00;72998.59;5093035;28;20209;-77
2022/02/22 06:13:21;;;;;;;16.03;3.47;;;;;;;-145.69;100.00;72990.63;5093488;28;20276;-76
2022/02/22 06:15:48;;;;;;;14.60;3.53;;;;;;;-145.69;100.00;72994.59;5093289;28;20201;-77
2022/02/22 06:18:16;;;;;;;14.13;3.90;;;;;;;-145.69;100.00;72986.63;5092872;28;20205;-76
2022/02/22 06:20:43;;;;;;;13.00;4.27;;;;;;;-145.69;100.00;72990.63;5093037;28;20301;-77
2022/02/22 06:23:11;;;;;;;13.80;3.50;;;;;;;-145.69;100.00;72996.59;5093053;28;20202;-76
2022/02/22 06:25:38;;;;;;;15.63;4.23;;;;;;;-145.69;100.00;73002.56;5083128;28;20656;-76
2022/02/22 06:28:05;;;;;;;13.07;4.07;;;;;;;-145.69;100.00;72990.63;5072144;28;20230;-76
2022/02/22 06:30:31;;;;;;;11.57;3.50;;;;;;;-145.69;100.00;72990.63;5072865;28;20203;-76
2022/02/22 06:32:59;;;;;;;16.80;3.50;;;;;;;-145.69;100.00;72984.66;5072383;28;20214;-76
2022/02/22 06:35:25;;;;;;;20.07;3.60;;;;;;;-145.69;100.00;72984.66;5072801;28;20285;-76
2022/02/22 06:37:52;;;;;;;10.80;3.33;;;;;;;-145.69;100.00;72984.66;5071827;28;20219;-77
2022/02/22 06:40:21;;;;;;;14.03;3.20;;;;;;;-145.69;100.00;72978.69;5072868;28;20631;-77
2022/02/22 06:42:49;;;;;;;14.40;4.00;;;;;;;-145.69;100.00;72974.69;5072793;28;20208;-77
2022/02/22 06:45:16;;;;;;;26.13;4.03;;;;;;;-145.69;100.00;72968.72;5072571;28;20206;-77
2022/02/22 06:47:43;;;;;;;17.02;4.80;;;;;;;-145.69;100.00;72976.69;5086611;28;20448;-77
2022/02/22 06:50:11;;;;;;;13.20;4.27;;;;;;;-145.69;100.00;72970.72;5092765;28;20210;-77
2022/02/22 06:52:42;;;;;;;22.73;5.50;;;;;;;-145.69;100.00;72970.72;5092316;28;20240;-77
2022/02/22 06:55:09;;;;;;;10.33;3.70;;;;;;;-145.69;100.00;72972.72;5092867;28;20611;-76
2022/02/22 06:57:38;;;;;;;10.37;4.17;;;;;;;-145.69;100.00;72972.72;5092699;28;20289;-77
2022/02/22 07:00:09;;;;;;;9.33;3.10;;;;;;;-145.69;100.00;72976.69;5092706;28;20201;-77
2022/02/22 07:02:37;;;;;;;19.93;4.53;;;;;;;-145.69;100.00;72974.69;5092481;28;20202;-77
2022/02/22 07:05:05;;;;;;;10.50;2.90;;;;;;;-145.69;100.00;72974.69;5091932;28;20588;-77
2022/02/22 07:07:31;;;;;;;9.10;3.00;;;;;;;-145.69;100.00;72976.69;5092170;28;20313;-77
2022/02/22 07:09:58;;;;;;;18.60;3.73;;;;;;;-145.69;100.00;72974.69;5092624;28;20209;-76
2022/02/22 07:12:24;;;;;;;14.00;3.13;;;;;;;-145.69;100.00;72966.72;5092683;28;20205;-77
2022/02/22 07:14:51;;;;;;;13.20;2.83;;;;;;;-145.69;100.00;72962.75;5092625;28;20197;-77
2022/02/22 07:17:26;;;;;;;17.95;3.67;;;;;;;-145.69;100.00;72946.81;5091600;28;20437;-77
2022/02/22 07:19:54;;;;;;;17.33;3.13;;;;;;;-145.69;100.00;72958.78;5092746;28;20266;-77
2022/02/22 07:22:21;;;;;;;12.23;2.67;;;;;;;-145.69;100.00;72974.69;5092042;28;20198;-77
2022/02/22 07:24:47;;;;;;;8.97;2.67;;;;;;;-145.69;100.00;72958.78;5087795;28;20198;-77
2022/02/22 07:27:14;;;;;;;21.47;3.20;;;;;;;-145.69;100.00;72978.69;5072328;28;20596;-77
2022/02/22 07:29:40;;;;;;;11.43;3.10;;;;;;;-145.69;100.00;72994.59;5071531;28;20773;-77
2022/02/22 07:32:09;;;;;;;22.53;6.73;;;;;;;-145.69;100.00;73014.50;5071848;28;20667;-77
2022/02/22 07:34:37;;;;;;;14.97;3.07;;;;;;;-145.69;100.00;73016.50;5072273;28;20195;-77
2022/02/22 07:37:04;;;;;;;15.73;4.57;;;;;;;-145.69;100.00;73006.53;5072355;28;20226;-77
2022/02/22 07:39:33;;;;;;;19.23;4.20;;;;;;;-145.69;100.00;73012.53;5072147;28;20241;-77
2022/02/22 07:41:59;;;;;;;18.30;5.13;;;;;;;-145.69;100.00;73022.47;5072647;28;20206;-77
2022/02/22 07:44:26;;;;;;;13.07;3.03;;;;;;;-145.69;100.00;73034.41;5072564;28;20202;-77
2022/02/22 07:46:52;;;;;;;17.63;3.80;;;;;;;-145.69;100.00;73014.50;5080503;28;20603;-77
2022/02/22 07:49:21;;;;;;;15.93;4.03;;;;;;;-145.69;100.00;73000.56;5095787;28;20321;-77
2022/02/22 07:51:49;;;;;;;12.73;4.70;;;;;;;-145.69;100.00;72990.63;5095840;28;20209;-77
2022/02/22 07:54:15;;;;;;;10.90;3.80;;;;;;;-145.69;100.00;72982.66;5095867;28;20198;-77
2022/02/22 07:56:43;;;;;;;18.30;5.03;;;;;;;-145.69;100.00;72972.72;5095457;28;20251;-77
2022/02/22 07:59:09;;;;;;;19.97;4.87;;;;;;;-145.69;100.00;72966.72;5095196;28;20198;-77
2022/02/22 08:01:36;;;;;;;21.20;5.73;;;;;;;-145.69;100.00;72976.69;5095775;28;20213;-77
2022/02/22 08:04:02;;;;;;;18.63;4.60;;;;;;;-145.69;100.00;72962.75;5095810;28;20198;-76
2022/02/22 08:06:29;;;;;;;12.73;3.40;;;;;;;-145.69;100.00;72960.75;5093858;28;20251;-77
2022/02/22 08:08:56;;;;;;;12.17;4.03;;;;;;;-145.69;100.00;72950.81;5095247;28;20233;-76
2022/02/22 08:11:24;;;;;;;21.03;6.40;;;;;;;-145.69;100.00;72944.84;5095327;28;20202;-76
2022/02/22 08:13:52;;;;;;;14.80;4.27;;;;;;;-145.69;100.00;72958.78;5095725;28;20209;-77
2022/02/22 08:16:19;;;;;;;17.60;4.30;;;;;;;-145.69;100.00;72958.78;5095195;28;20195;-76
2022/02/22 08:18:46;;;;;;;16.17;5.03;;;;;;;-145.69;100.00;72970.72;5095471;28;20209;-76
2022/02/22 08:21:13;;;;;;;24.17;5.93;;;;;;;-145.69;100.00;72956.78;5095434;28;20202;-76
2022/02/22 08:23:39;;;;;;;17.57;5.43;;;;;;;-145.69;100.00;72928.91;5095458;28;20534;-77
2022/02/22 08:26:07;;;;;;;27.60;6.23;;;;;;;-145.69;100.00;72911.00;5093110;28;20243;-76
2022/02/22 08:28:35;;;;;;;20.60;4.38;;;;;;;-145.69;100.00;72934.88;5094499;28;20460;-77
2022/02/22 08:31:01;;;;;;;19.50;4.50;;;;;;;-145.69;100.00;72946.81;5095125;28;20202;-76
2022/02/22 08:33:28;;;;;;;16.10;3.70;;;;;;;-145.69;100.00;72954.78;5094956;28;20198;-76
2022/02/22 08:35:54;;;;;;;21.97;5.23;;;;;;;-145.69;100.00;72938.88;5094046;28;20209;-76
2022/02/22 08:38:21;;;;;;;21.07;4.57;;;;;;;-145.69;100.00;72932.91;5074344;28;20657;-77
2022/02/22 08:40:49;;;;;;;18.93;4.63;;;;;;;-145.69;100.00;72938.88;5074380;28;20203;-76
2022/02/22 08:43:17;;;;;;;13.53;2.90;;;;;;;-145.69;100.00;72932.91;5074776;28;20608;-77
2022/02/22 08:45:44;;;;;;;13.87;3.80;;;;;;;-145.69;100.00;72932.91;5074704;28;20252;-76
2022/02/22 08:48:11;;;;;;;14.20;3.40;;;;;;;-145.69;100.00;72920.94;5085204;28;20267;-77
2022/02/22 08:50:37;;;;;;;19.97;3.40;;;;;;;-145.69;100.00;72907.00;5094779;28;20202;-77
2022/02/22 08:53:04;;;;;;;12.27;2.93;;;;;;;-145.69;100.00;72911.00;5094580;28;20202;-76
2022/02/22 08:55:30;;;;;;;14.40;3.07;;;;;;;-145.69;100.00;72911.00;5094180;28;20573;-76
2022/02/22 08:57:58;;;;;;;10.40;2.67;;;;;;;-145.69;100.00;72914.97;5094670;28;20206;-76
2022/02/22 09:00:27;;;;;;;14.20;2.40;;;;;;;-145.69;100.00;72924.94;5092749;28;20191;-76
2022/02/22 09:02:57;;;;;;;16.23;3.37;;;;;;;-145.69;100.00;72934.88;5094603;28;20198;-77
2022/02/22 09:05:24;;;;;;;14.30;2.80;;;;;;;-145.69;100.00;72918.97;5094526;28;20198;-76
2022/02/22 09:07:51;;;;;;;11.50;2.57;;;;;;;-145.69;100.00;72922.94;5094126;28;20233;-76
2022/02/22 09:10:17;;;;;;;6.03;2.17;;;;;;;-145.69;100.00;72946.81;5080982;28;20226;-76
2022/02/22 09:12:45;;;;;;;10.63;2.80;;;;;;;-145.69;100.00;72922.94;5074182;28;20210;-76
2022/02/22 09:15:12;;;;;;;15.10;2.77;;;;;;;-145.69;100.00;72916.97;5074097;28;20210;-76
2022/02/22 09:17:40;;;;;;;8.87;3.20;;;;;;;-145.69;100.00;72907.00;5074023;28;20218;-77
2022/02/22 09:20:09;;;;;;;12.43;2.93;;;;;;;-145.69;100.00;72905.03;5073858;28;20206;-76
2022/02/22 09:22:36;;;;;;;10.83;2.90;;;;;;;-145.69;100.00;72911.00;5073798;28;20221;-76
2022/02/22 09:25:04;;;;;;;8.33;2.97;;;;;;;-145.69;100.00;72911.00;5073968;28;20206;-76
2022/02/22 09:27:30;;;;;;;8.93;2.40;;;;;;;-145.69;100.00;72903.03;5073816;28;20282;-76
2022/02/22 09:29:57;;;;;;;15.83;2.60;;;;;;;-145.69;100.00;72903.03;5073771;28;20230;-76
2022/02/22 09:32:24;;;;;;;14.37;2.47;;;;;;;-145.69;100.00;72895.06;5090852;28;20194;-76
2022/02/22 09:34:53;;;;;;;10.93;2.17;;;;;;;-145.69;100.00;72887.09;5093770;28;20561;-76
2022/02/22 09:37:19;;;;;;;13.50;2.77;;;;;;;-145.69;100.00;72887.09;5083481;28;20325;-77
2022/02/22 09:39:45;;;;;;;12.07;2.30;;;;;;;-145.69;100.00;72855.25;5077247;28;20198;-77
2022/02/22 09:42:12;;;;;;;9.73;2.33;;;;;;;-145.69;100.00;72843.31;5080572;28;20199;-76
2022/02/22 09:44:40;;;;;;;7.90;1.90;;;;;;;-145.69;100.00;72843.31;5071765;28;20202;-76
2022/02/22 09:47:09;;;;;;;13.47;2.80;;;;;;;-145.69;100.00;72793.56;5066937;28;20199;-77
2022/02/22 09:49:36;;;;;;;9.87;1.93;;;;;;;-145.69;100.00;72759.72;5054301;28;20234;-76
2022/02/22 09:52:05;;;;;;;9.73;2.00;;;;;;;-145.69;100.00;72741.78;5059019;28;20225;-76
2022/02/22 09:54:33;;;;;;;10.63;1.87;;;;;;;-145.69;100.00;72755.72;5070600;28;20190;-75
2022/02/22 09:57:00;;;;;;;12.23;2.30;;;;;;;-145.69;100.00;72767.69;5053000;28;20212;-78
2022/02/22 09:59:27;;;;;;;8.23;1.60;;;;;;;-145.69;100.00;72763.69;5053298;28;20247;-76
2022/02/22 10:01:56;;;;;;;10.07;1.53;;;;;;;-145.69;100.00;72809.47;5053237;28;20566;-76
2022/02/22 10:04:23;;;;;;;10.13;1.80;;;;;;;-145.69;100.00;72803.50;5053353;28;20203;-76
2022/02/22 10:06:51;;;;;;;6.23;2.03;;;;;;;-145.69;100.00;72775.63;5052487;28;20658;-76
2022/02/22 10:09:21;;;;;;;11.30;2.00;;;;;;;-145.69;100.00;72761.69;5057778;28;20298;-76
2022/02/22 10:11:49;;;;;;;6.90;1.77;;;;;;;-145.69;100.00;72801.50;5072749;28;20241;-77
2022/02/22 10:14:23;;;;;;;11.03;2.00;;;;;;;-145.69;100.00;72839.34;5073007;28;20198;-76
2022/02/22 10:16:50;;;;;;;9.65;2.50;;;;;;;-145.69;100.00;72835.34;5072265;28;20438;-77
2022/02/22 10:19:18;;;;;;;11.80;2.57;;;;;;;-145.69;100.00;72835.34;5073196;28;20202;-76
2022/02/22 10:21:47;;;;;;;12.40;2.53;;;;;;;-145.69;100.00;72835.34;5072977;28;20701;-76
2022/02/22 10:24:16;;;;;;;9.33;2.80;;;;;;;-145.69;100.00;72833.38;5073212;28;20727;-76
2022/02/22 10:26:44;;;;;;;10.70;2.40;;;;;;;-145.69;100.00;72861.22;5072894;28;20285;-76
2022/02/22 10:29:15;;;;;;;13.37;2.90;;;;;;;-145.69;100.00;72867.19;5076795;28;20217;-76
2022/02/22 10:31:42;;;;;;;9.00;2.40;;;;;;;-145.69;100.00;72859.25;5092642;28;20607;-76
2022/02/22 10:34:09;;;;;;;10.50;2.67;;;;;;;-145.69;100.00;72835.34;5079881;28;20210;-76
2022/02/22 10:36:37;;;;;;;11.33;2.63;;;;;;;-145.69;100.00;72841.31;5072820;28;20202;-75
2022/02/22 10:39:05;;;;;;;12.70;2.60;;;;;;;-145.69;100.00;72853.28;5072800;28;20244;-75
2022/02/22 10:41:35;;;;;;;6.57;2.40;;;;;;;-145.69;100.00;72841.31;5072601;28;20195;-76
2022/02/22 10:44:04;;;;;;;11.83;2.30;;;;;;;-145.69;100.00;72867.19;5072877;28;20205;-76
2022/02/22 10:46:35;;;;;;;14.50;2.53;;;;;;;-145.69;100.00;72875.16;5072471;28;20198;-75
2022/02/22 10:49:03;;;;;;;10.73;2.77;;;;;;;-145.69;100.00;72877.16;5072497;28;20652;-76
2022/02/22 10:51:36;;;;;;;11.07;2.53;;;;;;;-145.69;100.00;72901.03;5078457;28;20217;-75
2022/02/22 10:54:03;;;;;;;6.70;1.80;;;;;;;-145.69;100.00;72905.03;5092722;28;20193;-76
2022/02/22 10:56:31;;;;;;;5.57;1.97;;;;;;;-145.69;100.00;72891.09;5092905;28;20209;-76
2022/02/22 10:58:58;;;;;;;10.10;2.60;;;;;;;-145.69;100.00;72869.19;5093081;28;20237;-76
2022/02/22 11:01:26;;;;;;;7.97;1.50;;;;;;;-145.69;100.00;72875.16;5091189;28;20553;-77
2022/02/22 11:03:55;;;;;;;5.57;1.70;;;;;;;-145.69;100.00;72891.09;5086401;28;20194;-76